Terminal Aerodrome Forecast
Issued by NWS Shreveport, LA

Home | Current Version | Previous Version | Text Only | Print | Product List | Glossary On
Versions: 1 2 3 4 5 6 7 8 9 10 11 12 13 14 15 16 17 18 19 20 21 22 23 24
000
FTUS44 KSHV 241700 RRA
TAFTYR
TAF
KTYR 241748Z 2418/2518 21019G28KT P6SM FEW030 SCT035 BKN050
      TEMPO 2420/2422 5SM -TSRA BR SCT040CB
     FM242200 25013G23KT P6SM SKC
     FM250600 34008KT P6SM SKC
     FM251500 09008KT P6SM SKC=

USA.gov is the U.S. government's official web portal to all federal, state and local government web resources and services.